sensor_id;sensor_type;location;lat;lon;timestamp;temperature;humidity
12922;DHT22;6528;48.086;16.282;2022-12-07T00:01:20;19.80;88.30
12922;DHT22;6528;48.086;16.282;2022-12-07T00:03:48;19.80;88.60
12922;DHT22;6528;48.086;16.282;2022-12-07T00:06:17;19.80;88.70
12922;DHT22;6528;48.086;16.282;2022-12-07T00:08:45;19.80;88.70
12922;DHT22;6528;48.086;16.282;2022-12-07T00:11:17;19.80;88.90
12922;DHT22;6528;48.086;16.282;2022-12-07T00:13:45;19.80;88.70
12922;DHT22;6528;48.086;16.282;2022-12-07T00:16:13;19.80;88.80
12922;DHT22;6528;48.086;16.282;2022-12-07T00:18:42;19.80;88.70
12922;DHT22;6528;48.086;16.282;2022-12-07T00:21:17;19.80;88.60
12922;DHT22;6528;48.086;16.282;2022-12-07T00:23:46;19.80;88.80
12922;DHT22;6528;48.086;16.282;2022-12-07T00:26:16;19.70;88.70
12922;DHT22;6528;48.086;16.282;2022-12-07T00:28:47;19.70;88.80
12922;DHT22;6528;48.086;16.282;2022-12-07T00:31:17;19.80;88.80
12922;DHT22;6528;48.086;16.282;2022-12-07T00:33:45;19.70;89.50
12922;DHT22;6528;48.086;16.282;2022-12-07T00:36:14;19.70;88.70
12922;DHT22;6528;48.086;16.282;2022-12-07T00:38:42;19.70;88.70
12922;DHT22;6528;48.086;16.282;2022-12-07T00:41:21;19.70;88.70
12922;DHT22;6528;48.086;16.282;2022-12-07T00:43:49;19.70;88.70
12922;DHT22;6528;48.086;16.282;2022-12-07T00:46:17;19.70;88.70
12922;DHT22;6528;48.086;16.282;2022-12-07T00:48:46;19.70;89.40
12922;DHT22;6528;48.086;16.282;2022-12-07T00:51:15;19.70;88.80
12922;DHT22;6528;48.086;16.282;2022-12-07T00:53:42;19.70;88.80
12922;DHT22;6528;48.086;16.282;2022-12-07T00:56:12;19.70;88.80
12922;DHT22;6528;48.086;16.282;2022-12-07T00:58:39;19.70;88.80
12922;DHT22;6528;48.086;16.282;2022-12-07T01:01:08;19.70;88.90
12922;DHT22;6528;48.086;16.282;2022-12-07T01:03:35;19.70;89.00
12922;DHT22;6528;48.086;16.282;2022-12-07T01:06:03;19.70;89.00
12922;DHT22;6528;48.086;16.282;2022-12-07T01:08:30;19.70;88.90
12922;DHT22;6528;48.086;16.282;2022-12-07T01:11:05;19.70;89.00
12922;DHT22;6528;48.086;16.282;2022-12-07T01:13:34;19.70;89.00
12922;DHT22;6528;48.086;16.282;2022-12-07T01:16:04;19.70;89.00
12922;DHT22;6528;48.086;16.282;2022-12-07T01:18:33;19.70;89.00
12922;DHT22;6528;48.086;16.282;2022-12-07T01:21:10;19.70;89.00
12922;DHT22;6528;48.086;16.282;2022-12-07T01:23:38;19.70;89.00
12922;DHT22;6528;48.086;16.282;2022-12-07T01:26:09;19.70;89.00
12922;DHT22;6528;48.086;16.282;2022-12-07T01:28:36;19.60;89.00
12922;DHT22;6528;48.086;16.282;2022-12-07T01:31:14;19.60;89.00
12922;DHT22;6528;48.086;16.282;2022-12-07T01:33:44;19.60;89.00
12922;DHT22;6528;48.086;16.282;2022-12-07T01:36:18;19.60;88.80
12922;DHT22;6528;48.086;16.282;2022-12-07T01:38:48;19.60;88.70
12922;DHT22;6528;48.086;16.282;2022-12-07T01:41:16;19.60;88.60
12922;DHT22;6528;48.086;16.282;2022-12-07T01:46:34;19.60;88.50
12922;DHT22;6528;48.086;16.282;2022-12-07T01:49:03;19.60;88.40
12922;DHT22;6528;48.086;16.282;2022-12-07T01:51:31;19.70;88.60
12922;DHT22;6528;48.086;16.282;2022-12-07T01:53:58;19.60;89.00
12922;DHT22;6528;48.086;16.282;2022-12-07T01:56:27;19.60;88.20
12922;DHT22;6528;48.086;16.282;2022-12-07T01:58:56;19.70;88.20
12922;DHT22;6528;48.086;16.282;2022-12-07T02:01:24;19.70;88.00
12922;DHT22;6528;48.086;16.282;2022-12-07T02:03:51;19.70;88.10
12922;DHT22;6528;48.086;16.282;2022-12-07T02:06:22;19.60;87.80
12922;DHT22;6528;48.086;16.282;2022-12-07T02:08:50;19.60;87.80
12922;DHT22;6528;48.086;16.282;2022-12-07T02:11:17;19.70;88.00
12922;DHT22;6528;48.086;16.282;2022-12-07T02:13:46;19.70;87.60
12922;DHT22;6528;48.086;16.282;2022-12-07T02:16:27;19.60;88.00
12922;DHT22;6528;48.086;16.282;2022-12-07T02:25:50;19.60;88.30
12922;DHT22;6528;48.086;16.282;2022-12-07T02:30:34;19.60;88.30
12922;DHT22;6528;48.086;16.282;2022-12-07T02:33:16;19.70;88.20
12922;DHT22;6528;48.086;16.282;2022-12-07T02:36:16;19.60;88.00
12922;DHT22;6528;48.086;16.282;2022-12-07T02:39:11;19.60;87.80
12922;DHT22;6528;48.086;16.282;2022-12-07T02:41:47;19.70;88.00
12922;DHT22;6528;48.086;16.282;2022-12-07T02:44:21;19.60;88.00
12922;DHT22;6528;48.086;16.282;2022-12-07T02:47:04;19.60;88.20
12922;DHT22;6528;48.086;16.282;2022-12-07T02:49:33;19.70;88.30
12922;DHT22;6528;48.086;16.282;2022-12-07T02:52:00;19.60;88.30
12922;DHT22;6528;48.086;16.282;2022-12-07T02:54:27;19.60;88.40
12922;DHT22;6528;48.086;16.282;2022-12-07T02:57:00;19.60;88.40
12922;DHT22;6528;48.086;16.282;2022-12-07T03:18:22;19.60;88.70
12922;DHT22;6528;48.086;16.282;2022-12-07T03:20:55;19.60;88.70
12922;DHT22;6528;48.086;16.282;2022-12-07T03:23:25;19.60;88.60
12922;DHT22;6528;48.086;16.282;2022-12-07T03:25:58;19.60;88.70
12922;DHT22;6528;48.086;16.282;2022-12-07T03:28:34;19.60;88.70
12922;DHT22;6528;48.086;16.282;2022-12-07T03:31:13;19.60;88.60
12922;DHT22;6528;48.086;16.282;2022-12-07T03:33:54;19.60;88.30
12922;DHT22;6528;48.086;16.282;2022-12-07T03:36:33;19.60;88.30
12922;DHT22;6528;48.086;16.282;2022-12-07T03:42:16;19.60;88.30
12922;DHT22;6528;48.086;16.282;2022-12-07T03:44:43;19.60;88.30
12922;DHT22;6528;48.086;16.282;2022-12-07T03:47:15;19.60;88.30
12922;DHT22;6528;48.086;16.282;2022-12-07T03:49:48;19.60;88.50
12922;DHT22;6528;48.086;16.282;2022-12-07T03:55:02;19.60;88.60
12922;DHT22;6528;48.086;16.282;2022-12-07T03:57:33;19.60;88.60
12922;DHT22;6528;48.086;16.282;2022-12-07T04:00:05;19.60;88.70
12922;DHT22;6528;48.086;16.282;2022-12-07T04:02:33;19.60;88.70
12922;DHT22;6528;48.086;16.282;2022-12-07T04:05:01;19.60;88.70
12922;DHT22;6528;48.086;16.282;2022-12-07T04:07:28;19.60;89.40
12922;DHT22;6528;48.086;16.282;2022-12-07T04:09:55;19.60;88.90
12922;DHT22;6528;48.086;16.282;2022-12-07T04:12:22;19.60;89.00
12922;DHT22;6528;48.086;16.282;2022-12-07T04:14:49;19.60;89.20
12922;DHT22;6528;48.086;16.282;2022-12-07T04:17:16;19.60;89.20
12922;DHT22;6528;48.086;16.282;2022-12-07T04:19:43;19.60;89.20
12922;DHT22;6528;48.086;16.282;2022-12-07T04:22:10;19.60;89.10
12922;DHT22;6528;48.086;16.282;2022-12-07T04:24:37;19.60;89.00
12922;DHT22;6528;48.086;16.282;2022-12-07T04:27:04;19.60;88.80
12922;DHT22;6528;48.086;16.282;2022-12-07T04:29:30;19.60;88.80
12922;DHT22;6528;48.086;16.282;2022-12-07T04:31:57;19.60;88.80
12922;DHT22;6528;48.086;16.282;2022-12-07T04:34:24;19.70;88.70
12922;DHT22;6528;48.086;16.282;2022-12-07T04:36:51;19.70;88.30
12922;DHT22;6528;48.086;16.282;2022-12-07T04:39:25;19.70;88.20
12922;DHT22;6528;48.086;16.282;2022-12-07T04:41:52;19.70;88.00
12922;DHT22;6528;48.086;16.282;2022-12-07T04:44:21;19.70;88.10
12922;DHT22;6528;48.086;16.282;2022-12-07T04:50:01;19.70;87.90
12922;DHT22;6528;48.086;16.282;2022-12-07T04:52:28;19.70;87.70
12922;DHT22;6528;48.086;16.282;2022-12-07T04:54:56;19.70;87.60
12922;DHT22;6528;48.086;16.282;2022-12-07T04:57:23;19.70;87.60
12922;DHT22;6528;48.086;16.282;2022-12-07T04:59:50;19.80;87.70
12922;DHT22;6528;48.086;16.282;2022-12-07T05:02:17;19.80;87.70
12922;DHT22;6528;48.086;16.282;2022-12-07T05:04:44;19.80;87.70
12922;DHT22;6528;48.086;16.282;2022-12-07T05:07:11;19.80;87.50
12922;DHT22;6528;48.086;16.282;2022-12-07T05:09:38;19.80;87.70
12922;DHT22;6528;48.086;16.282;2022-12-07T05:12:05;19.80;87.70
12922;DHT22;6528;48.086;16.282;2022-12-07T05:14:31;19.80;87.60
12922;DHT22;6528;48.086;16.282;2022-12-07T05:16:58;19.80;87.60
12922;DHT22;6528;48.086;16.282;2022-12-07T05:19:25;19.80;87.30
12922;DHT22;6528;48.086;16.282;2022-12-07T05:21:53;19.80;87.20
12922;DHT22;6528;48.086;16.282;2022-12-07T05:24:20;19.80;87.20
12922;DHT22;6528;48.086;16.282;2022-12-07T05:26:46;19.80;87.30
12922;DHT22;6528;48.086;16.282;2022-12-07T05:29:16;19.80;87.30
12922;DHT22;6528;48.086;16.282;2022-12-07T05:31:43;19.80;87.30
12922;DHT22;6528;48.086;16.282;2022-12-07T05:34:10;19.90;87.60
12922;DHT22;6528;48.086;16.282;2022-12-07T05:36:38;19.90;87.30
12922;DHT22;6528;48.086;16.282;2022-12-07T05:39:05;19.90;87.30
12922;DHT22;6528;48.086;16.282;2022-12-07T05:41:32;19.90;86.90
12922;DHT22;6528;48.086;16.282;2022-12-07T05:44:18;19.90;86.70
12922;DHT22;6528;48.086;16.282;2022-12-07T05:46:45;19.90;86.90
12922;DHT22;6528;48.086;16.282;2022-12-07T05:49:12;19.90;86.80
12922;DHT22;6528;48.086;16.282;2022-12-07T05:51:39;19.90;86.60
12922;DHT22;6528;48.086;16.282;2022-12-07T05:54:05;19.90;86.50
12922;DHT22;6528;48.086;16.282;2022-12-07T05:56:32;19.90;86.50
12922;DHT22;6528;48.086;16.282;2022-12-07T05:58:59;20.00;86.50
12922;DHT22;6528;48.086;16.282;2022-12-07T06:01:45;19.90;86.50
12922;DHT22;6528;48.086;16.282;2022-12-07T06:04:12;19.90;86.30
12922;DHT22;6528;48.086;16.282;2022-12-07T06:06:39;20.00;86.60
12922;DHT22;6528;48.086;16.282;2022-12-07T06:09:06;20.00;86.70
12922;DHT22;6528;48.086;16.282;2022-12-07T06:11:33;20.00;86.60
12922;DHT22;6528;48.086;16.282;2022-12-07T06:14:18;20.00;86.60
12922;DHT22;6528;48.086;16.282;2022-12-07T06:16:46;20.00;86.50
12922;DHT22;6528;48.086;16.282;2022-12-07T06:19:13;20.00;86.60
12922;DHT22;6528;48.086;16.282;2022-12-07T06:21:40;20.10;86.90
12922;DHT22;6528;48.086;16.282;2022-12-07T06:24:10;20.00;86.90
12922;DHT22;6528;48.086;16.282;2022-12-07T06:26:37;20.10;87.00
12922;DHT22;6528;48.086;16.282;2022-12-07T06:29:04;20.10;87.20
12922;DHT22;6528;48.086;16.282;2022-12-07T06:31:32;20.10;87.10
12922;DHT22;6528;48.086;16.282;2022-12-07T06:34:00;20.10;87.10
12922;DHT22;6528;48.086;16.282;2022-12-07T06:36:28;20.10;87.10
12922;DHT22;6528;48.086;16.282;2022-12-07T06:38:55;20.10;88.00
12922;DHT22;6528;48.086;16.282;2022-12-07T06:41:23;20.10;87.20
12922;DHT22;6528;48.086;16.282;2022-12-07T06:43:50;20.10;87.30
12922;DHT22;6528;48.086;16.282;2022-12-07T06:46:22;20.10;87.20
12922;DHT22;6528;48.086;16.282;2022-12-07T06:48:49;20.10;87.10
12922;DHT22;6528;48.086;16.282;2022-12-07T06:51:16;20.10;86.70
12922;DHT22;6528;48.086;16.282;2022-12-07T06:53:43;20.20;86.90
12922;DHT22;6528;48.086;16.282;2022-12-07T06:56:10;20.20;87.60
12922;DHT22;6528;48.086;16.282;2022-12-07T06:58:37;20.10;87.90
12922;DHT22;6528;48.086;16.282;2022-12-07T07:01:12;20.10;87.90
12922;DHT22;6528;48.086;16.282;2022-12-07T07:03:39;20.10;88.00
12922;DHT22;6528;48.086;16.282;2022-12-07T07:06:06;20.10;87.90
12922;DHT22;6528;48.086;16.282;2022-12-07T07:08:35;20.20;87.70
12922;DHT22;6528;48.086;16.282;2022-12-07T07:11:02;20.20;87.60
12922;DHT22;6528;48.086;16.282;2022-12-07T07:13:29;20.20;87.50
12922;DHT22;6528;48.086;16.282;2022-12-07T07:15:56;20.20;87.60
12922;DHT22;6528;48.086;16.282;2022-12-07T07:18:24;20.20;87.40
12922;DHT22;6528;48.086;16.282;2022-12-07T07:20:52;20.10;87.20
12922;DHT22;6528;48.086;16.282;2022-12-07T07:23:21;20.20;87.10
12922;DHT22;6528;48.086;16.282;2022-12-07T07:25:48;20.20;87.10
12922;DHT22;6528;48.086;16.282;2022-12-07T07:28:16;20.20;87.00
12922;DHT22;6528;48.086;16.282;2022-12-07T07:30:43;20.20;87.00
12922;DHT22;6528;48.086;16.282;2022-12-07T07:33:10;20.30;87.00
12922;DHT22;6528;48.086;16.282;2022-12-07T07:35:38;20.30;87.10
12922;DHT22;6528;48.086;16.282;2022-12-07T07:38:06;20.30;86.90
12922;DHT22;6528;48.086;16.282;2022-12-07T07:40:33;20.30;86.70
12922;DHT22;6528;48.086;16.282;2022-12-07T07:43:01;20.30;86.60
12922;DHT22;6528;48.086;16.282;2022-12-07T07:45:28;20.30;86.40
12922;DHT22;6528;48.086;16.282;2022-12-07T07:47:55;20.30;86.10
12922;DHT22;6528;48.086;16.282;2022-12-07T07:50:22;20.30;86.20
12922;DHT22;6528;48.086;16.282;2022-12-07T07:52:49;20.40;86.20
12922;DHT22;6528;48.086;16.282;2022-12-07T07:55:16;20.40;86.30
12922;DHT22;6528;48.086;16.282;2022-12-07T07:57:43;20.30;86.10
12922;DHT22;6528;48.086;16.282;2022-12-07T08:00:17;20.40;86.10
12922;DHT22;6528;48.086;16.282;2022-12-07T08:02:44;20.40;85.90
12922;DHT22;6528;48.086;16.282;2022-12-07T08:05:12;20.40;85.90
12922;DHT22;6528;48.086;16.282;2022-12-07T08:07:39;20.40;85.80
12922;DHT22;6528;48.086;16.282;2022-12-07T08:10:08;20.40;85.80
12922;DHT22;6528;48.086;16.282;2022-12-07T08:12:37;20.40;85.60
12922;DHT22;6528;48.086;16.282;2022-12-07T08:15:29;20.40;85.30
12922;DHT22;6528;48.086;16.282;2022-12-07T08:17:57;20.40;85.10
12922;DHT22;6528;48.086;16.282;2022-12-07T08:20:24;20.40;85.00
12922;DHT22;6528;48.086;16.282;2022-12-07T08:22:51;20.40;85.20
12922;DHT22;6528;48.086;16.282;2022-12-07T08:25:18;20.40;85.30
12922;DHT22;6528;48.086;16.282;2022-12-07T08:27:45;20.40;85.20
12922;DHT22;6528;48.086;16.282;2022-12-07T08:30:12;20.40;84.90
12922;DHT22;6528;48.086;16.282;2022-12-07T08:32:38;20.50;85.00
12922;DHT22;6528;48.086;16.282;2022-12-07T08:35:06;20.50;84.80
12922;DHT22;6528;48.086;16.282;2022-12-07T08:37:33;20.40;84.40
12922;DHT22;6528;48.086;16.282;2022-12-07T08:40:00;20.50;84.70
12922;DHT22;6528;48.086;16.282;2022-12-07T08:42:27;20.50;84.80
12922;DHT22;6528;48.086;16.282;2022-12-07T08:44:57;20.50;84.70
12922;DHT22;6528;48.086;16.282;2022-12-07T08:47:25;20.50;84.80
12922;DHT22;6528;48.086;16.282;2022-12-07T08:49:52;20.50;84.70
12922;DHT22;6528;48.086;16.282;2022-12-07T08:52:20;20.50;84.90
12922;DHT22;6528;48.086;16.282;2022-12-07T08:54:47;20.50;84.90
12922;DHT22;6528;48.086;16.282;2022-12-07T08:57:14;20.50;85.00
12922;DHT22;6528;48.086;16.282;2022-12-07T08:59:41;20.50;84.90
12922;DHT22;6528;48.086;16.282;2022-12-07T09:02:08;20.50;84.80
12922;DHT22;6528;48.086;16.282;2022-12-07T09:04:35;20.50;84.80
12922;DHT22;6528;48.086;16.282;2022-12-07T09:07:02;20.50;84.80
12922;DHT22;6528;48.086;16.282;2022-12-07T09:09:29;20.50;84.40
12922;DHT22;6528;48.086;16.282;2022-12-07T09:11:56;20.50;84.60
12922;DHT22;6528;48.086;16.282;2022-12-07T09:14:23;20.50;84.30
12922;DHT22;6528;48.086;16.282;2022-12-07T09:16:50;20.50;84.20
12922;DHT22;6528;48.086;16.282;2022-12-07T09:19:17;20.50;84.30
12922;DHT22;6528;48.086;16.282;2022-12-07T09:21:44;20.50;84.30
12922;DHT22;6528;48.086;16.282;2022-12-07T09:24:12;20.50;84.40
12922;DHT22;6528;48.086;16.282;2022-12-07T09:26:39;20.50;84.40
12922;DHT22;6528;48.086;16.282;2022-12-07T09:29:07;20.50;84.10
12922;DHT22;6528;48.086;16.282;2022-12-07T09:31:36;20.50;83.90
12922;DHT22;6528;48.086;16.282;2022-12-07T09:34:03;20.50;83.70
12922;DHT22;6528;48.086;16.282;2022-12-07T09:36:33;20.50;83.60
12922;DHT22;6528;48.086;16.282;2022-12-07T09:39:00;20.50;83.60
12922;DHT22;6528;48.086;16.282;2022-12-07T09:41:28;20.50;83.70
12922;DHT22;6528;48.086;16.282;2022-12-07T09:44:12;20.50;83.70
12922;DHT22;6528;48.086;16.282;2022-12-07T09:46:42;20.50;83.50
12922;DHT22;6528;48.086;16.282;2022-12-07T09:49:16;20.50;83.60
12922;DHT22;6528;48.086;16.282;2022-12-07T09:51:44;20.50;83.60
12922;DHT22;6528;48.086;16.282;2022-12-07T09:54:16;20.60;83.60
12922;DHT22;6528;48.086;16.282;2022-12-07T09:56:44;20.60;83.50
12922;DHT22;6528;48.086;16.282;2022-12-07T09:59:17;20.50;83.50
12922;DHT22;6528;48.086;16.282;2022-12-07T10:01:47;20.60;83.40
12922;DHT22;6528;48.086;16.282;2022-12-07T10:04:27;20.60;83.20
12922;DHT22;6528;48.086;16.282;2022-12-07T10:06:56;20.60;83.10
12922;DHT22;6528;48.086;16.282;2022-12-07T10:09:23;20.50;83.00
12922;DHT22;6528;48.086;16.282;2022-12-07T10:14:27;20.50;83.10
12922;DHT22;6528;48.086;16.282;2022-12-07T10:17:36;20.60;83.20
12922;DHT22;6528;48.086;16.282;2022-12-07T10:20:23;20.60;83.40
12922;DHT22;6528;48.086;16.282;2022-12-07T10:23:05;20.60;83.40
12922;DHT22;6528;48.086;16.282;2022-12-07T10:25:34;20.60;83.50
12922;DHT22;6528;48.086;16.282;2022-12-07T10:30:50;20.60;83.60
12922;DHT22;6528;48.086;16.282;2022-12-07T10:33:35;20.60;83.80
12922;DHT22;6528;48.086;16.282;2022-12-07T10:36:22;20.60;84.00
12922;DHT22;6528;48.086;16.282;2022-12-07T10:39:13;20.50;83.80
12922;DHT22;6528;48.086;16.282;2022-12-07T10:44:26;20.50;83.80
12922;DHT22;6528;48.086;16.282;2022-12-07T10:52:58;20.50;83.60
12922;DHT22;6528;48.086;16.282;2022-12-07T10:55:23;20.60;83.80
12922;DHT22;6528;48.086;16.282;2022-12-07T11:01:01;20.50;83.70
12922;DHT22;6528;48.086;16.282;2022-12-07T11:07:01;20.50;83.80
12922;DHT22;6528;48.086;16.282;2022-12-07T11:15:24;20.50;83.60
12922;DHT22;6528;48.086;16.282;2022-12-07T11:26:15;20.50;83.50
12922;DHT22;6528;48.086;16.282;2022-12-07T11:29:20;20.50;83.50
12922;DHT22;6528;48.086;16.282;2022-12-07T11:32:15;20.50;83.40
12922;DHT22;6528;48.086;16.282;2022-12-07T11:38:13;20.50;83.40
12922;DHT22;6528;48.086;16.282;2022-12-07T11:40:45;20.50;83.40
12922;DHT22;6528;48.086;16.282;2022-12-07T11:43:54;20.50;83.30
12922;DHT22;6528;48.086;16.282;2022-12-07T11:46:30;20.50;83.30
12922;DHT22;6528;48.086;16.282;2022-12-07T11:52:02;20.50;83.30
12922;DHT22;6528;48.086;16.282;2022-12-07T11:54:35;20.50;83.10
12922;DHT22;6528;48.086;16.282;2022-12-07T11:57:10;20.50;83.20
12922;DHT22;6528;48.086;16.282;2022-12-07T12:00:00;20.50;83.10
12922;DHT22;6528;48.086;16.282;2022-12-07T12:02:58;20.50;83.30
12922;DHT22;6528;48.086;16.282;2022-12-07T12:05:28;20.50;83.20
12922;DHT22;6528;48.086;16.282;2022-12-07T12:08:15;20.50;83.00
12922;DHT22;6528;48.086;16.282;2022-12-07T12:20:28;20.50;83.10
12922;DHT22;6528;48.086;16.282;2022-12-07T12:23:22;20.50;83.30
12922;DHT22;6528;48.086;16.282;2022-12-07T12:26:16;20.50;83.10
12922;DHT22;6528;48.086;16.282;2022-12-07T12:29:17;20.50;83.20
12922;DHT22;6528;48.086;16.282;2022-12-07T12:31:48;20.50;83.30
12922;DHT22;6528;48.086;16.282;2022-12-07T12:45:32;20.50;83.10
12922;DHT22;6528;48.086;16.282;2022-12-07T12:50:36;20.50;83.20
12922;DHT22;6528;48.086;16.282;2022-12-07T12:53:16;20.50;83.20
12922;DHT22;6528;48.086;16.282;2022-12-07T12:58:40;20.50;82.70
12922;DHT22;6528;48.086;16.282;2022-12-07T13:01:32;20.50;82.70
12922;DHT22;6528;48.086;16.282;2022-12-07T13:03:59;20.50;82.70
12922;DHT22;6528;48.086;16.282;2022-12-07T13:08:57;20.50;82.60
12922;DHT22;6528;48.086;16.282;2022-12-07T13:11:32;20.50;82.70
12922;DHT22;6528;48.086;16.282;2022-12-07T13:20:07;20.50;82.40
12922;DHT22;6528;48.086;16.282;2022-12-07T13:22:46;20.50;82.40
12922;DHT22;6528;48.086;16.282;2022-12-07T13:25:33;20.50;82.50
12922;DHT22;6528;48.086;16.282;2022-12-07T13:28:16;20.50;82.60
12922;DHT22;6528;48.086;16.282;2022-12-07T13:31:09;20.50;82.50
12922;DHT22;6528;48.086;16.282;2022-12-07T13:33:37;20.50;82.30
12922;DHT22;6528;48.086;16.282;2022-12-07T13:36:04;20.50;82.10
12922;DHT22;6528;48.086;16.282;2022-12-07T13:38:37;20.50;82.00
12922;DHT22;6528;48.086;16.282;2022-12-07T13:43:49;20.50;81.90
12922;DHT22;6528;48.086;16.282;2022-12-07T13:46:20;20.50;82.00
12922;DHT22;6528;48.086;16.282;2022-12-07T13:48:51;20.50;82.30
12922;DHT22;6528;48.086;16.282;2022-12-07T13:51:37;20.50;82.30
12922;DHT22;6528;48.086;16.282;2022-12-07T13:54:13;20.50;82.30
12922;DHT22;6528;48.086;16.282;2022-12-07T13:56:41;20.50;82.20
12922;DHT22;6528;48.086;16.282;2022-12-07T13:59:17;20.50;82.10
12922;DHT22;6528;48.086;16.282;2022-12-07T14:01:46;20.50;82.10
12922;DHT22;6528;48.086;16.282;2022-12-07T14:04:31;20.40;81.90
12922;DHT22;6528;48.086;16.282;2022-12-07T14:06:58;20.50;82.00
12922;DHT22;6528;48.086;16.282;2022-12-07T14:09:28;20.50;82.10
12922;DHT22;6528;48.086;16.282;2022-12-07T14:11:57;20.40;82.00
12922;DHT22;6528;48.086;16.282;2022-12-07T14:14:30;20.40;81.90
12922;DHT22;6528;48.086;16.282;2022-12-07T14:17:19;20.40;81.80
12922;DHT22;6528;48.086;16.282;2022-12-07T14:19:48;20.40;82.50
12922;DHT22;6528;48.086;16.282;2022-12-07T14:22:33;20.40;81.60
12922;DHT22;6528;48.086;16.282;2022-12-07T14:25:20;20.40;81.50
12922;DHT22;6528;48.086;16.282;2022-12-07T14:27:52;20.40;81.50
12922;DHT22;6528;48.086;16.282;2022-12-07T14:30:27;20.40;81.50
12922;DHT22;6528;48.086;16.282;2022-12-07T14:32:58;20.40;81.40
12922;DHT22;6528;48.086;16.282;2022-12-07T14:35:27;20.40;81.40
12922;DHT22;6528;48.086;16.282;2022-12-07T14:37:55;20.40;81.40
12922;DHT22;6528;48.086;16.282;2022-12-07T14:40:26;20.40;81.60
12922;DHT22;6528;48.086;16.282;2022-12-07T14:43:00;20.40;81.60
12922;DHT22;6528;48.086;16.282;2022-12-07T14:45:28;20.40;81.80
12922;DHT22;6528;48.086;16.282;2022-12-07T14:47:54;20.40;81.50
12922;DHT22;6528;48.086;16.282;2022-12-07T14:50:49;20.40;81.50
12922;DHT22;6528;48.086;16.282;2022-12-07T14:53:40;20.40;81.20
12922;DHT22;6528;48.086;16.282;2022-12-07T14:56:08;20.40;81.30
12922;DHT22;6528;48.086;16.282;2022-12-07T14:58:35;20.40;81.10
12922;DHT22;6528;48.086;16.282;2022-12-07T15:01:02;20.40;81.20
12922;DHT22;6528;48.086;16.282;2022-12-07T15:03:29;20.40;81.20
12922;DHT22;6528;48.086;16.282;2022-12-07T15:05:56;20.40;81.20
12922;DHT22;6528;48.086;16.282;2022-12-07T15:08:23;20.40;81.30
12922;DHT22;6528;48.086;16.282;2022-12-07T15:10:50;20.40;82.20
12922;DHT22;6528;48.086;16.282;2022-12-07T15:13:17;20.40;81.40
12922;DHT22;6528;48.086;16.282;2022-12-07T15:16:03;20.40;81.00
12922;DHT22;6528;48.086;16.282;2022-12-07T15:18:30;20.40;80.80
12922;DHT22;6528;48.086;16.282;2022-12-07T15:20:57;20.40;80.70
12922;DHT22;6528;48.086;16.282;2022-12-07T15:23:24;20.40;80.80
12922;DHT22;6528;48.086;16.282;2022-12-07T15:25:50;20.40;80.70
12922;DHT22;6528;48.086;16.282;2022-12-07T15:28:17;20.40;80.60
12922;DHT22;6528;48.086;16.282;2022-12-07T15:30:44;20.40;80.70
12922;DHT22;6528;48.086;16.282;2022-12-07T15:33:12;20.40;80.70
12922;DHT22;6528;48.086;16.282;2022-12-07T15:35:41;20.40;80.60
12922;DHT22;6528;48.086;16.282;2022-12-07T15:38:08;20.40;80.70
12922;DHT22;6528;48.086;16.282;2022-12-07T15:40:35;20.40;80.80
12922;DHT22;6528;48.086;16.282;2022-12-07T15:43:03;20.30;80.90
12922;DHT22;6528;48.086;16.282;2022-12-07T15:45:30;20.30;81.00
12922;DHT22;6528;48.086;16.282;2022-12-07T15:47:57;20.30;80.90
12922;DHT22;6528;48.086;16.282;2022-12-07T15:50:44;20.30;80.70
12922;DHT22;6528;48.086;16.282;2022-12-07T15:53:11;20.30;80.40
12922;DHT22;6528;48.086;16.282;2022-12-07T15:55:39;20.30;80.70
12922;DHT22;6528;48.086;16.282;2022-12-07T15:58:06;20.30;80.60
12922;DHT22;6528;48.086;16.282;2022-12-07T16:00:33;20.30;80.20
12922;DHT22;6528;48.086;16.282;2022-12-07T16:03:00;20.30;80.10
12922;DHT22;6528;48.086;16.282;2022-12-07T16:05:27;20.30;80.00
12922;DHT22;6528;48.086;16.282;2022-12-07T16:07:54;20.30;80.00
12922;DHT22;6528;48.086;16.282;2022-12-07T16:10:21;20.40;80.00
12922;DHT22;6528;48.086;16.282;2022-12-07T16:12:48;20.30;79.80
12922;DHT22;6528;48.086;16.282;2022-12-07T16:15:15;20.30;79.60
12922;DHT22;6528;48.086;16.282;2022-12-07T16:17:50;20.30;79.70
12922;DHT22;6528;48.086;16.282;2022-12-07T16:20:17;20.30;79.60
12922;DHT22;6528;48.086;16.282;2022-12-07T16:22:44;20.30;79.70
12922;DHT22;6528;48.086;16.282;2022-12-07T16:25:11;20.30;79.60
12922;DHT22;6528;48.086;16.282;2022-12-07T16:27:38;20.30;79.70
12922;DHT22;6528;48.086;16.282;2022-12-07T16:30:06;20.30;79.60
12922;DHT22;6528;48.086;16.282;2022-12-07T16:32:33;20.30;79.60
12922;DHT22;6528;48.086;16.282;2022-12-07T16:35:00;20.30;79.50
12922;DHT22;6528;48.086;16.282;2022-12-07T16:37:28;20.30;79.90
12922;DHT22;6528;48.086;16.282;2022-12-07T16:39:55;20.30;80.00
12922;DHT22;6528;48.086;16.282;2022-12-07T16:42:21;20.30;79.80
12922;DHT22;6528;48.086;16.282;2022-12-07T16:44:48;20.30;79.60
12922;DHT22;6528;48.086;16.282;2022-12-07T16:47:15;20.30;79.60
12922;DHT22;6528;48.086;16.282;2022-12-07T16:49:43;20.30;79.40
12922;DHT22;6528;48.086;16.282;2022-12-07T16:52:13;20.30;79.30
12922;DHT22;6528;48.086;16.282;2022-12-07T16:54:47;20.30;79.20
12922;DHT22;6528;48.086;16.282;2022-12-07T16:57:15;20.30;79.30
12922;DHT22;6528;48.086;16.282;2022-12-07T16:59:49;20.30;79.30
12922;DHT22;6528;48.086;16.282;2022-12-07T17:02:16;20.30;79.20
12922;DHT22;6528;48.086;16.282;2022-12-07T17:04:43;20.30;79.10
12922;DHT22;6528;48.086;16.282;2022-12-07T17:07:10;20.30;80.00
12922;DHT22;6528;48.086;16.282;2022-12-07T17:09:37;20.30;79.10
12922;DHT22;6528;48.086;16.282;2022-12-07T17:12:04;20.30;79.10
12922;DHT22;6528;48.086;16.282;2022-12-07T17:14:32;20.30;79.00
12922;DHT22;6528;48.086;16.282;2022-12-07T17:17:17;20.30;79.10
12922;DHT22;6528;48.086;16.282;2022-12-07T17:19:44;20.30;79.20
12922;DHT22;6528;48.086;16.282;2022-12-07T17:22:11;20.30;79.30
12922;DHT22;6528;48.086;16.282;2022-12-07T17:24:39;20.30;79.20
12922;DHT22;6528;48.086;16.282;2022-12-07T17:27:06;20.30;79.10
12922;DHT22;6528;48.086;16.282;2022-12-07T17:29:33;20.30;79.00
12922;DHT22;6528;48.086;16.282;2022-12-07T17:32:00;20.30;79.00
12922;DHT22;6528;48.086;16.282;2022-12-07T17:34:27;20.30;79.10
12922;DHT22;6528;48.086;16.282;2022-12-07T17:36:53;20.30;79.20
12922;DHT22;6528;48.086;16.282;2022-12-07T17:39:21;20.20;79.50
12922;DHT22;6528;48.086;16.282;2022-12-07T17:41:48;20.30;79.50
12922;DHT22;6528;48.086;16.282;2022-12-07T17:44:33;20.20;79.40
12922;DHT22;6528;48.086;16.282;2022-12-07T17:47:00;20.30;79.30
12922;DHT22;6528;48.086;16.282;2022-12-07T17:49:29;20.20;79.40
12922;DHT22;6528;48.086;16.282;2022-12-07T17:51:56;20.30;79.30